sensor_id;sensor_type;location;lat;lon;timestamp;pressure;altitude;pressure_sealevel;temperature;humidity
55191;BME280;41070;50.360;18.742;2022-08-19T00:00:39;98121.91;;;23.74;62.70
55191;BME280;41070;50.360;18.742;2022-08-19T00:03:07;98129.03;;;23.73;62.83
55191;BME280;41070;50.360;18.742;2022-08-19T00:05:34;98128.02;;;23.73;62.80
55191;BME280;41070;50.360;18.742;2022-08-19T00:08:02;98125.02;;;23.72;63.01
55191;BME280;41070;50.360;18.742;2022-08-19T00:10:30;98123.03;;;23.69;63.17
55191;BME280;41070;50.360;18.742;2022-08-19T00:12:57;98123.20;;;23.66;63.23
55191;BME280;41070;50.360;18.742;2022-08-19T00:15:25;98123.89;;;23.66;63.43
55191;BME280;41070;50.360;18.742;2022-08-19T00:17:53;98124.43;;;23.66;63.26
55191;BME280;41070;50.360;18.742;2022-08-19T00:20:21;98121.46;;;23.67;63.41
55191;BME280;41070;50.360;18.742;2022-08-19T00:22:49;98115.51;;;23.65;63.43
55191;BME280;41070;50.360;18.742;2022-08-19T00:25:18;98115.77;;;23.61;63.58
55191;BME280;41070;50.360;18.742;2022-08-19T00:27:45;98110.95;;;23.61;63.68
55191;BME280;41070;50.360;18.742;2022-08-19T00:30:13;98109.52;;;23.62;63.74
55191;BME280;41070;50.360;18.742;2022-08-19T00:32:41;98109.30;;;23.61;63.72
55191;BME280;41070;50.360;18.742;2022-08-19T00:35:09;98101.04;;;23.59;63.73
55191;BME280;41070;50.360;18.742;2022-08-19T00:37:38;98097.08;;;23.51;63.93
55191;BME280;41070;50.360;18.742;2022-08-19T00:40:07;98093.84;;;23.43;64.08
55191;BME280;41070;50.360;18.742;2022-08-19T00:42:35;98091.40;;;23.37;64.33
55191;BME280;41070;50.360;18.742;2022-08-19T00:45:10;98092.64;;;23.34;64.46
55191;BME280;41070;50.360;18.742;2022-08-19T00:47:38;98094.30;;;23.34;64.59
55191;BME280;41070;50.360;18.742;2022-08-19T00:50:08;98094.34;;;23.35;64.68
55191;BME280;41070;50.360;18.742;2022-08-19T00:52:40;98090.40;;;23.34;64.73
55191;BME280;41070;50.360;18.742;2022-08-19T00:55:21;98089.55;;;23.34;64.92
55191;BME280;41070;50.360;18.742;2022-08-19T00:57:56;98085.81;;;23.34;64.85
55191;BME280;41070;50.360;18.742;2022-08-19T01:00:27;98085.77;;;23.35;65.00
55191;BME280;41070;50.360;18.742;2022-08-19T01:02:54;98080.39;;;23.35;65.07
55191;BME280;41070;50.360;18.742;2022-08-19T01:05:25;98077.56;;;23.33;64.99
55191;BME280;41070;50.360;18.742;2022-08-19T01:07:56;98079.19;;;23.31;65.18
55191;BME280;41070;50.360;18.742;2022-08-19T01:10:26;98078.86;;;23.32;65.31
55191;BME280;41070;50.360;18.742;2022-08-19T01:12:55;98079.38;;;23.32;65.27
55191;BME280;41070;50.360;18.742;2022-08-19T01:15:26;98079.92;;;23.32;65.37
55191;BME280;41070;50.360;18.742;2022-08-19T01:17:57;98075.39;;;23.33;65.38
55191;BME280;41070;50.360;18.742;2022-08-19T01:20:26;98077.48;;;23.29;65.44
55191;BME280;41070;50.360;18.742;2022-08-19T01:22:58;98069.85;;;23.28;65.55
55191;BME280;41070;50.360;18.742;2022-08-19T01:25:31;98065.27;;;23.28;65.50
55191;BME280;41070;50.360;18.742;2022-08-19T01:27:59;98065.45;;;23.27;65.48
55191;BME280;41070;50.360;18.742;2022-08-19T01:30:32;98061.95;;;23.27;65.52
55191;BME280;41070;50.360;18.742;2022-08-19T01:33:01;98060.58;;;23.23;65.60
55191;BME280;41070;50.360;18.742;2022-08-19T01:35:31;98064.58;;;23.20;65.77
55191;BME280;41070;50.360;18.742;2022-08-19T01:38:02;98065.55;;;23.19;65.82
55191;BME280;41070;50.360;18.742;2022-08-19T01:40:35;98059.52;;;23.20;65.83
55191;BME280;41070;50.360;18.742;2022-08-19T01:43:04;98064.96;;;23.18;65.84
55191;BME280;41070;50.360;18.742;2022-08-19T01:45:33;98060.96;;;23.16;65.93
55191;BME280;41070;50.360;18.742;2022-08-19T01:48:02;98060.69;;;23.15;66.05
55191;BME280;41070;50.360;18.742;2022-08-19T01:50:31;98059.56;;;23.11;66.09
55191;BME280;41070;50.360;18.742;2022-08-19T01:53:00;98064.00;;;23.09;66.22
55191;BME280;41070;50.360;18.742;2022-08-19T01:55:29;98059.41;;;23.06;66.28
55191;BME280;41070;50.360;18.742;2022-08-19T01:58:00;98056.02;;;23.02;66.49
55191;BME280;41070;50.360;18.742;2022-08-19T02:00:31;98057.20;;;23.01;66.47
55191;BME280;41070;50.360;18.742;2022-08-19T02:02:59;98056.19;;;23.01;66.56
55191;BME280;41070;50.360;18.742;2022-08-19T02:05:27;98056.33;;;23.01;66.50
55191;BME280;41070;50.360;18.742;2022-08-19T02:07:56;98054.66;;;22.98;66.70
55191;BME280;41070;50.360;18.742;2022-08-19T02:10:25;98056.83;;;22.96;66.68
55191;BME280;41070;50.360;18.742;2022-08-19T02:12:52;98055.58;;;22.96;66.66
55191;BME280;41070;50.360;18.742;2022-08-19T02:15:20;98055.59;;;22.96;66.81
55191;BME280;41070;50.360;18.742;2022-08-19T02:17:48;98058.92;;;22.96;66.78
55191;BME280;41070;50.360;18.742;2022-08-19T02:20:16;98058.46;;;22.96;66.99
55191;BME280;41070;50.360;18.742;2022-08-19T02:22:44;98050.48;;;22.94;66.86
55191;BME280;41070;50.360;18.742;2022-08-19T02:25:13;98046.77;;;22.93;66.94
55191;BME280;41070;50.360;18.742;2022-08-19T02:27:41;98043.67;;;22.93;67.01
55191;BME280;41070;50.360;18.742;2022-08-19T02:30:13;98043.98;;;22.93;66.90
55191;BME280;41070;50.360;18.742;2022-08-19T02:32:42;98038.59;;;22.91;66.98
55191;BME280;41070;50.360;18.742;2022-08-19T02:35:11;98040.91;;;22.92;67.26
55191;BME280;41070;50.360;18.742;2022-08-19T02:37:41;98041.04;;;22.93;67.15
55191;BME280;41070;50.360;18.742;2022-08-19T02:43:38;98046.14;;;22.86;67.38
55191;BME280;41070;50.360;18.742;2022-08-19T02:46:35;98045.42;;;22.84;67.33
55191;BME280;41070;50.360;18.742;2022-08-19T02:49:05;98044.34;;;22.84;67.54
55191;BME280;41070;50.360;18.742;2022-08-19T02:51:39;98045.13;;;22.84;67.58
55191;BME280;41070;50.360;18.742;2022-08-19T02:54:09;98041.34;;;22.85;67.46
55191;BME280;41070;50.360;18.742;2022-08-19T02:56:38;98040.30;;;22.86;67.70
55191;BME280;41070;50.360;18.742;2022-08-19T02:59:07;98039.30;;;22.88;67.56
55191;BME280;41070;50.360;18.742;2022-08-19T03:01:38;98044.55;;;22.88;67.48
55191;BME280;41070;50.360;18.742;2022-08-19T03:04:07;98040.50;;;22.82;67.31
55191;BME280;41070;50.360;18.742;2022-08-19T03:06:37;98042.06;;;22.79;67.52
55191;BME280;41070;50.360;18.742;2022-08-19T03:09:06;98039.09;;;22.78;67.76
55191;BME280;41070;50.360;18.742;2022-08-19T03:11:33;98033.86;;;22.76;67.66
55191;BME280;41070;50.360;18.742;2022-08-19T03:24:44;98034.92;;;22.71;67.98
55191;BME280;41070;50.360;18.742;2022-08-19T03:27:31;98034.88;;;22.73;68.06
55191;BME280;41070;50.360;18.742;2022-08-19T03:29:59;98039.33;;;22.72;68.00
55191;BME280;41070;50.360;18.742;2022-08-19T03:32:27;98049.36;;;22.73;67.86
55191;BME280;41070;50.360;18.742;2022-08-19T03:34:55;98054.80;;;22.74;67.97
55191;BME280;41070;50.360;18.742;2022-08-19T03:37:23;98061.14;;;22.75;67.87
55191;BME280;41070;50.360;18.742;2022-08-19T03:39:52;98060.20;;;22.75;67.89
55191;BME280;41070;50.360;18.742;2022-08-19T03:42:20;98056.66;;;22.76;67.89
55191;BME280;41070;50.360;18.742;2022-08-19T03:44:48;98060.31;;;22.79;67.82
55191;BME280;41070;50.360;18.742;2022-08-19T03:47:15;98065.08;;;22.78;67.78
55191;BME280;41070;50.360;18.742;2022-08-19T03:49:44;98067.33;;;22.79;67.85
55191;BME280;41070;50.360;18.742;2022-08-19T03:52:13;98072.74;;;22.80;67.76
55191;BME280;41070;50.360;18.742;2022-08-19T03:54:41;98071.02;;;22.80;67.47
55191;BME280;41070;50.360;18.742;2022-08-19T03:57:09;98069.30;;;22.81;67.70
55191;BME280;41070;50.360;18.742;2022-08-19T03:59:38;98074.25;;;22.84;67.53
55191;BME280;41070;50.360;18.742;2022-08-19T04:02:09;98078.02;;;22.86;67.64
55191;BME280;41070;50.360;18.742;2022-08-19T04:04:40;98077.38;;;22.86;67.63
55191;BME280;41070;50.360;18.742;2022-08-19T04:07:11;98087.59;;;22.86;67.69
55191;BME280;41070;50.360;18.742;2022-08-19T04:09:41;98091.95;;;22.87;67.48
55191;BME280;41070;50.360;18.742;2022-08-19T04:12:09;98093.80;;;22.85;67.35
55191;BME280;41070;50.360;18.742;2022-08-19T04:14:37;98096.02;;;22.83;67.47
55191;BME280;41070;50.360;18.742;2022-08-19T04:17:06;98094.56;;;22.85;67.51
55191;BME280;41070;50.360;18.742;2022-08-19T04:19:35;98091.39;;;22.89;67.62
55191;BME280;41070;50.360;18.742;2022-08-19T04:22:05;98099.15;;;22.93;67.61
55191;BME280;41070;50.360;18.742;2022-08-19T04:24:34;98104.73;;;22.94;67.49
55191;BME280;41070;50.360;18.742;2022-08-19T04:27:04;98107.92;;;23.02;67.44
55191;BME280;41070;50.360;18.742;2022-08-19T04:29:34;98112.92;;;23.07;67.30
55191;BME280;41070;50.360;18.742;2022-08-19T04:32:02;98111.17;;;23.13;67.44
55191;BME280;41070;50.360;18.742;2022-08-19T04:34:31;98113.77;;;23.22;67.29
55191;BME280;41070;50.360;18.742;2022-08-19T04:37:06;98115.28;;;23.29;67.18
55191;BME280;41070;50.360;18.742;2022-08-19T04:39:38;98117.95;;;23.33;66.85
55191;BME280;41070;50.360;18.742;2022-08-19T04:42:24;98119.55;;;23.37;66.98
55191;BME280;41070;50.360;18.742;2022-08-19T04:45:14;98121.41;;;23.42;66.75
55191;BME280;41070;50.360;18.742;2022-08-19T04:47:43;98122.56;;;23.45;66.53
55191;BME280;41070;50.360;18.742;2022-08-19T04:50:11;98124.61;;;23.47;66.48
55191;BME280;41070;50.360;18.742;2022-08-19T04:52:40;98123.09;;;23.50;66.68
55191;BME280;41070;50.360;18.742;2022-08-19T04:55:10;98118.11;;;23.52;66.44
55191;BME280;41070;50.360;18.742;2022-08-19T04:57:38;98120.12;;;23.53;66.20
55191;BME280;41070;50.360;18.742;2022-08-19T05:00:28;98119.79;;;23.56;66.29
55191;BME280;41070;50.360;18.742;2022-08-19T05:03:00;98111.48;;;23.61;66.24
55191;BME280;41070;50.360;18.742;2022-08-19T05:05:48;98105.03;;;23.68;66.13
55191;BME280;41070;50.360;18.742;2022-08-19T05:08:37;98112.02;;;23.76;66.11
55191;BME280;41070;50.360;18.742;2022-08-19T05:11:26;98115.91;;;23.82;65.92
55191;BME280;41070;50.360;18.742;2022-08-19T05:24:39;98120.70;;;24.18;65.56
55191;BME280;41070;50.360;18.742;2022-08-19T05:30:22;98125.42;;;24.29;65.05
55191;BME280;41070;50.360;18.742;2022-08-19T05:33:18;98125.87;;;24.33;64.75
55191;BME280;41070;50.360;18.742;2022-08-19T05:44:42;98130.89;;;24.41;64.45
55191;BME280;41070;50.360;18.742;2022-08-19T05:47:41;98142.25;;;24.47;64.13
55191;BME280;41070;50.360;18.742;2022-08-19T05:50:31;98132.69;;;24.46;64.14
55191;BME280;41070;50.360;18.742;2022-08-19T05:53:38;98140.38;;;24.47;64.10
55191;BME280;41070;50.360;18.742;2022-08-19T05:59:20;98131.05;;;24.53;64.02
55191;BME280;41070;50.360;18.742;2022-08-19T06:02:19;98127.30;;;24.59;63.78
55191;BME280;41070;50.360;18.742;2022-08-19T06:05:47;98137.70;;;24.69;64.00
55191;BME280;41070;50.360;18.742;2022-08-19T06:08:55;98141.73;;;24.76;63.82
55191;BME280;41070;50.360;18.742;2022-08-19T06:12:00;98151.38;;;24.88;63.73
55191;BME280;41070;50.360;18.742;2022-08-19T06:17:20;98147.83;;;25.05;63.44
55191;BME280;41070;50.360;18.742;2022-08-19T06:33:23;98168.52;;;25.32;62.82
55191;BME280;41070;50.360;18.742;2022-08-19T07:00:13;98201.27;;;26.26;60.48
55191;BME280;41070;50.360;18.742;2022-08-19T07:06:06;98203.30;;;26.40;59.82
55191;BME280;41070;50.360;18.742;2022-08-19T07:09:13;98207.26;;;26.48;59.63
55191;BME280;41070;50.360;18.742;2022-08-19T07:12:00;98214.05;;;26.58;59.53
55191;BME280;41070;50.360;18.742;2022-08-19T07:14:47;98216.25;;;26.64;59.49
55191;BME280;41070;50.360;18.742;2022-08-19T07:17:16;98216.99;;;26.70;59.59
55191;BME280;41070;50.360;18.742;2022-08-19T07:19:46;98227.04;;;26.77;59.55
55191;BME280;41070;50.360;18.742;2022-08-19T07:22:17;98224.38;;;26.82;59.41
55191;BME280;41070;50.360;18.742;2022-08-19T07:24:50;98224.75;;;26.91;58.72
55191;BME280;41070;50.360;18.742;2022-08-19T07:27:18;98228.08;;;26.99;58.70
55191;BME280;41070;50.360;18.742;2022-08-19T07:29:55;98233.27;;;27.09;58.42
55191;BME280;41070;50.360;18.742;2022-08-19T07:39:30;98238.91;;;27.43;57.84
55191;BME280;41070;50.360;18.742;2022-08-19T07:42:03;98242.86;;;27.54;57.64
55191;BME280;41070;50.360;18.742;2022-08-19T07:44:35;98243.89;;;27.62;57.46
55191;BME280;41070;50.360;18.742;2022-08-19T07:47:15;98242.31;;;27.71;57.12
55191;BME280;41070;50.360;18.742;2022-08-19T07:49:43;98242.84;;;27.79;57.07
55191;BME280;41070;50.360;18.742;2022-08-19T07:52:14;98248.48;;;27.87;56.66
55191;BME280;41070;50.360;18.742;2022-08-19T07:54:42;98245.92;;;27.94;56.07
55191;BME280;41070;50.360;18.742;2022-08-19T07:57:14;98249.92;;;27.99;55.62
55191;BME280;41070;50.360;18.742;2022-08-19T07:59:41;98245.27;;;28.06;55.58
55191;BME280;41070;50.360;18.742;2022-08-19T08:02:09;98245.52;;;28.13;55.42
55191;BME280;41070;50.360;18.742;2022-08-19T08:04:37;98244.63;;;28.17;54.73
55191;BME280;41070;50.360;18.742;2022-08-19T08:07:45;98249.71;;;28.24;54.70
55191;BME280;41070;50.360;18.742;2022-08-19T08:10:30;98248.56;;;28.37;54.87
55191;BME280;41070;50.360;18.742;2022-08-19T08:12:59;98250.64;;;28.46;54.36
55191;BME280;41070;50.360;18.742;2022-08-19T08:15:26;98244.61;;;28.47;53.93
55191;BME280;41070;50.360;18.742;2022-08-19T08:17:54;98244.35;;;28.54;54.32
55191;BME280;41070;50.360;18.742;2022-08-19T08:20:24;98246.70;;;28.65;53.83
55191;BME280;41070;50.360;18.742;2022-08-19T08:22:51;98246.15;;;28.70;53.44
55191;BME280;41070;50.360;18.742;2022-08-19T08:25:37;98243.96;;;28.78;53.02
55191;BME280;41070;50.360;18.742;2022-08-19T08:28:05;98245.14;;;28.84;52.57
55191;BME280;41070;50.360;18.742;2022-08-19T08:30:33;98242.61;;;28.87;52.19
55191;BME280;41070;50.360;18.742;2022-08-19T08:33:02;98241.00;;;28.95;52.09
55191;BME280;41070;50.360;18.742;2022-08-19T08:35:30;98234.71;;;28.98;52.30
55191;BME280;41070;50.360;18.742;2022-08-19T08:38:21;98228.23;;;29.10;52.68
55191;BME280;41070;50.360;18.742;2022-08-19T08:41:02;98233.08;;;29.27;52.35
55191;BME280;41070;50.360;18.742;2022-08-19T08:43:50;98234.97;;;29.44;51.76
55191;BME280;41070;50.360;18.742;2022-08-19T08:46:48;98235.33;;;29.59;50.85
55191;BME280;41070;50.360;18.742;2022-08-19T08:52:28;98225.73;;;29.64;49.18
55191;BME280;41070;50.360;18.742;2022-08-19T08:55:20;98222.63;;;29.58;48.91
55191;BME280;41070;50.360;18.742;2022-08-19T09:00:27;98222.52;;;29.64;49.39
55191;BME280;41070;50.360;18.742;2022-08-19T09:02:58;98223.50;;;29.88;49.37
55191;BME280;41070;50.360;18.742;2022-08-19T09:09:10;98230.34;;;29.97;48.78
55191;BME280;41070;50.360;18.742;2022-08-19T09:11:56;98234.68;;;29.97;48.46
55191;BME280;41070;50.360;18.742;2022-08-19T09:20:18;98244.65;;;30.04;48.44
55191;BME280;41070;50.360;18.742;2022-08-19T09:25:55;98242.44;;;30.29;48.09
55191;BME280;41070;50.360;18.742;2022-08-19T09:28:55;98246.52;;;30.44;47.88
55191;BME280;41070;50.360;18.742;2022-08-19T10:22:58;98238.27;;;32.02;44.93
55191;BME280;41070;50.360;18.742;2022-08-19T10:31:29;98233.27;;;32.27;44.79
55191;BME280;41070;50.360;18.742;2022-08-19T10:44:00;98220.19;;;32.09;43.97
55191;BME280;41070;50.360;18.742;2022-08-19T11:01:51;98198.34;;;31.67;44.90
55191;BME280;41070;50.360;18.742;2022-08-19T11:04:20;98194.23;;;31.71;44.96
55191;BME280;41070;50.360;18.742;2022-08-19T11:06:49;98197.91;;;31.78;45.26
55191;BME280;41070;50.360;18.742;2022-08-19T11:09:22;98199.93;;;31.89;44.75
55191;BME280;41070;50.360;18.742;2022-08-19T11:11:53;98206.15;;;31.95;44.23
55191;BME280;41070;50.360;18.742;2022-08-19T11:14:26;98205.65;;;32.09;44.42
55191;BME280;41070;50.360;18.742;2022-08-19T11:17:01;98204.66;;;32.12;44.17
55191;BME280;41070;50.360;18.742;2022-08-19T11:19:33;98201.89;;;32.13;44.12
55191;BME280;41070;50.360;18.742;2022-08-19T11:22:03;98206.91;;;32.30;44.69
55191;BME280;41070;50.360;18.742;2022-08-19T11:24:33;98206.61;;;32.50;43.81
55191;BME280;41070;50.360;18.742;2022-08-19T11:27:06;98207.51;;;32.75;43.50
55191;BME280;41070;50.360;18.742;2022-08-19T11:29:38;98207.89;;;32.93;43.21
55191;BME280;41070;50.360;18.742;2022-08-19T11:32:10;98204.05;;;33.03;42.21
55191;BME280;41070;50.360;18.742;2022-08-19T11:34:47;98199.80;;;33.11;41.81
55191;BME280;41070;50.360;18.742;2022-08-19T11:37:35;98200.64;;;33.14;41.57
55191;BME280;41070;50.360;18.742;2022-08-19T11:40:05;98203.33;;;33.12;41.40
55191;BME280;41070;50.360;18.742;2022-08-19T11:42:35;98203.33;;;33.10;41.34
55191;BME280;41070;50.360;18.742;2022-08-19T11:45:27;98205.77;;;33.08;41.27
55191;BME280;41070;50.360;18.742;2022-08-19T11:51:04;98205.42;;;32.96;41.07
55191;BME280;41070;50.360;18.742;2022-08-19T11:53:38;98206.89;;;32.82;41.46
55191;BME280;41070;50.360;18.742;2022-08-19T11:59:05;98194.77;;;32.70;41.54
55191;BME280;41070;50.360;18.742;2022-08-19T12:02:14;98194.86;;;32.64;41.19
55191;BME280;41070;50.360;18.742;2022-08-19T12:07:40;98190.92;;;32.63;42.91
55191;BME280;41070;50.360;18.742;2022-08-19T12:11:02;98185.46;;;32.54;42.50
55191;BME280;41070;50.360;18.742;2022-08-19T12:13:38;98191.08;;;32.42;42.37
55191;BME280;41070;50.360;18.742;2022-08-19T12:16:18;98187.06;;;32.41;42.37
55191;BME280;41070;50.360;18.742;2022-08-19T12:18:47;98182.13;;;32.42;43.31
55191;BME280;41070;50.360;18.742;2022-08-19T12:30:13;98164.30;;;32.61;42.99
55191;BME280;41070;50.360;18.742;2022-08-19T12:33:05;98161.38;;;32.68;42.79
55191;BME280;41070;50.360;18.742;2022-08-19T12:51:40;98167.89;;;33.02;43.22
55191;BME280;41070;50.360;18.742;2022-08-19T13:20:04;98161.76;;;33.50;41.62
55191;BME280;41070;50.360;18.742;2022-08-19T14:04:58;98149.19;;;34.36;39.77
55191;BME280;41070;50.360;18.742;2022-08-19T14:07:37;98154.39;;;34.41;39.63
55191;BME280;41070;50.360;18.742;2022-08-19T14:10:45;98151.14;;;34.44;40.05
55191;BME280;41070;50.360;18.742;2022-08-19T14:13:34;98148.08;;;34.44;39.08
55191;BME280;41070;50.360;18.742;2022-08-19T14:16:22;98150.01;;;34.48;38.93
55191;BME280;41070;50.360;18.742;2022-08-19T14:19:29;98148.86;;;34.53;38.92
55191;BME280;41070;50.360;18.742;2022-08-19T14:22:18;98143.82;;;34.58;38.72
55191;BME280;41070;50.360;18.742;2022-08-19T14:25:10;98139.92;;;34.59;38.86
55191;BME280;41070;50.360;18.742;2022-08-19T14:30:50;98137.09;;;34.52;38.72
55191;BME280;41070;50.360;18.742;2022-08-19T14:33:57;98133.28;;;34.51;38.74
55191;BME280;41070;50.360;18.742;2022-08-19T14:37:05;98126.20;;;34.46;38.91
55191;BME280;41070;50.360;18.742;2022-08-19T14:40:14;98120.96;;;34.31;39.28
55191;BME280;41070;50.360;18.742;2022-08-19T14:43:20;98116.92;;;34.07;39.73
55191;BME280;41070;50.360;18.742;2022-08-19T14:46:08;98111.74;;;33.88;40.40
55191;BME280;41070;50.360;18.742;2022-08-19T14:51:52;98090.15;;;33.72;40.17
55191;BME280;41070;50.360;18.742;2022-08-19T14:55:03;98081.16;;;33.63;39.81
55191;BME280;41070;50.360;18.742;2022-08-19T14:58:15;98080.02;;;33.43;38.60
55191;BME280;41070;50.360;18.742;2022-08-19T15:01:23;98081.31;;;33.24;38.51
55191;BME280;41070;50.360;18.742;2022-08-19T15:04:12;98076.16;;;33.09;39.05
55191;BME280;41070;50.360;18.742;2022-08-19T15:07:00;98080.86;;;32.99;39.22
55191;BME280;41070;50.360;18.742;2022-08-19T15:09:50;98077.16;;;32.90;39.09
55191;BME280;41070;50.360;18.742;2022-08-19T15:12:45;98075.23;;;32.76;40.17
55191;BME280;41070;50.360;18.742;2022-08-19T15:15:33;98072.52;;;32.62;40.00
55191;BME280;41070;50.360;18.742;2022-08-19T15:18:41;98069.00;;;32.49;40.28
55191;BME280;41070;50.360;18.742;2022-08-19T15:21:49;98069.11;;;32.32;40.67
55191;BME280;41070;50.360;18.742;2022-08-19T15:24:36;98065.92;;;32.16;41.38
55191;BME280;41070;50.360;18.742;2022-08-19T15:27:32;98059.28;;;32.05;42.09
55191;BME280;41070;50.360;18.742;2022-08-19T15:30:24;98046.58;;;31.91;42.45
55191;BME280;41070;50.360;18.742;2022-08-19T15:33:32;98029.40;;;31.77;42.34
55191;BME280;41070;50.360;18.742;2022-08-19T15:36:04;98026.86;;;31.64;42.74
55191;BME280;41070;50.360;18.742;2022-08-19T15:38:52;98027.35;;;31.55;42.98
55191;BME280;41070;50.360;18.742;2022-08-19T15:41:29;98034.61;;;31.48;42.98
55191;BME280;41070;50.360;18.742;2022-08-19T15:44:08;98042.45;;;31.40;42.87
55191;BME280;41070;50.360;18.742;2022-08-19T15:46:38;98047.75;;;31.31;42.67
55191;BME280;41070;50.360;18.742;2022-08-19T15:49:07;98057.25;;;31.22;42.74
55191;BME280;41070;50.360;18.742;2022-08-19T16:28:45;98134.77;;;29.71;49.47
55191;BME280;41070;50.360;18.742;2022-08-19T16:31:14;98129.93;;;29.34;50.46
55191;BME280;41070;50.360;18.742;2022-08-19T16:33:43;98120.12;;;28.88;51.46
55191;BME280;41070;50.360;18.742;2022-08-19T16:36:17;98124.10;;;28.55;52.36
55191;BME280;41070;50.360;18.742;2022-08-19T16:39:05;98129.20;;;28.28;53.05
55191;BME280;41070;50.360;18.742;2022-08-19T16:41:38;98148.65;;;28.01;54.15
55191;BME280;41070;50.360;18.742;2022-08-19T16:44:18;98145.92;;;27.70;55.24
55191;BME280;41070;50.360;18.742;2022-08-19T16:46:46;98143.48;;;27.50;56.00
55191;BME280;41070;50.360;18.742;2022-08-19T16:49:18;98138.87;;;27.30;56.51
55191;BME280;41070;50.360;18.742;2022-08-19T16:52:07;98132.61;;;27.10;57.62
55191;BME280;41070;50.360;18.742;2022-08-19T16:54:36;98123.70;;;26.87;58.89
55191;BME280;41070;50.360;18.742;2022-08-19T16:57:04;98109.19;;;26.65;59.27
55191;BME280;41070;50.360;18.742;2022-08-19T16:59:34;98094.99;;;26.44;60.59
55191;BME280;41070;50.360;18.742;2022-08-19T17:02:41;98083.12;;;26.21;60.94
55191;BME280;41070;50.360;18.742;2022-08-19T17:05:09;98097.15;;;26.05;61.89
55191;BME280;41070;50.360;18.742;2022-08-19T17:10:29;98180.94;;;25.91;61.91
55191;BME280;41070;50.360;18.742;2022-08-19T17:13:17;98235.10;;;25.90;61.73
55191;BME280;41070;50.360;18.742;2022-08-19T17:16:05;98271.48;;;25.80;63.24
55191;BME280;41070;50.360;18.742;2022-08-19T17:18:33;98255.38;;;25.70;63.35
55191;BME280;41070;50.360;18.742;2022-08-19T17:21:25;98238.69;;;25.58;63.29
55191;BME280;41070;50.360;18.742;2022-08-19T17:24:14;98237.63;;;25.41;63.59
55191;BME280;41070;50.360;18.742;2022-08-19T17:27:21;98233.05;;;25.22;64.01
55191;BME280;41070;50.360;18.742;2022-08-19T17:29:50;98250.64;;;25.15;64.10
55191;BME280;41070;50.360;18.742;2022-08-19T17:35:27;98324.08;;;25.29;64.35
55191;BME280;41070;50.360;18.742;2022-08-19T17:37:55;98329.33;;;25.24;64.80
55191;BME280;41070;50.360;18.742;2022-08-19T17:40:26;98322.95;;;25.14;65.21
55191;BME280;41070;50.360;18.742;2022-08-19T17:42:53;98317.79;;;24.99;65.69
55191;BME280;41070;50.360;18.742;2022-08-19T17:45:21;98320.49;;;24.82;65.82
55191;BME280;41070;50.360;18.742;2022-08-19T17:47:58;98320.42;;;24.69;66.34
55191;BME280;41070;50.360;18.742;2022-08-19T17:50:28;98341.48;;;24.56;66.91
55191;BME280;41070;50.360;18.742;2022-08-19T17:53:00;98386.33;;;24.45;67.88
55191;BME280;41070;50.360;18.742;2022-08-19T17:55:31;98413.67;;;24.33;69.05
55191;BME280;41070;50.360;18.742;2022-08-19T17:58:03;98447.36;;;24.12;69.70
55191;BME280;41070;50.360;18.742;2022-08-19T18:00:32;98417.88;;;23.96;70.60
55191;BME280;41070;50.360;18.742;2022-08-19T18:03:02;98395.23;;;23.88;71.00
55191;BME280;41070;50.360;18.742;2022-08-19T18:05:38;98385.19;;;23.85;71.27
55191;BME280;41070;50.360;18.742;2022-08-19T18:08:07;98365.38;;;23.87;71.58
55191;BME280;41070;50.360;18.742;2022-08-19T18:13:14;98364.77;;;23.94;72.69
55191;BME280;41070;50.360;18.742;2022-08-19T18:15:41;98386.44;;;23.95;72.60
55191;BME280;41070;50.360;18.742;2022-08-19T18:18:11;98391.98;;;23.93;72.79
55191;BME280;41070;50.360;18.742;2022-08-19T18:20:39;98388.27;;;23.94;72.59
55191;BME280;41070;50.360;18.742;2022-08-19T18:23:06;98374.83;;;23.92;72.53
55191;BME280;41070;50.360;18.742;2022-08-19T18:25:34;98356.70;;;23.83;72.49
55191;BME280;41070;50.360;18.742;2022-08-19T18:28:02;98357.17;;;23.68;73.01
55191;BME280;41070;50.360;18.742;2022-08-19T18:30:30;98362.07;;;23.56;73.29
55191;BME280;41070;50.360;18.742;2022-08-19T18:33:02;98365.09;;;23.37;74.05
55191;BME280;41070;50.360;18.742;2022-08-19T18:35:31;98373.95;;;23.30;75.13
55191;BME280;41070;50.360;18.742;2022-08-19T18:38:00;98361.78;;;23.41;75.30
55191;BME280;41070;50.360;18.742;2022-08-19T18:40:48;98361.24;;;23.55;75.21
55191;BME280;41070;50.360;18.742;2022-08-19T18:43:33;98371.55;;;23.62;75.75
55191;BME280;41070;50.360;18.742;2022-08-19T18:46:21;98388.36;;;23.64;75.78
55191;BME280;41070;50.360;18.742;2022-08-19T18:49:08;98391.94;;;23.67;75.70
55191;BME280;41070;50.360;18.742;2022-08-19T18:51:36;98384.78;;;23.71;76.07
55191;BME280;41070;50.360;18.742;2022-08-19T18:54:04;98372.11;;;23.72;76.35
55191;BME280;41070;50.360;18.742;2022-08-19T18:56:33;98384.13;;;23.75;76.58
55191;BME280;41070;50.360;18.742;2022-08-19T18:59:05;98374.64;;;23.77;76.06
55191;BME280;41070;50.360;18.742;2022-08-19T19:01:35;98360.94;;;23.62;75.26
55191;BME280;41070;50.360;18.742;2022-08-19T19:04:07;98373.73;;;23.52;76.37
55191;BME280;41070;50.360;18.742;2022-08-19T19:06:42;98401.52;;;23.54;76.83
55191;BME280;41070;50.360;18.742;2022-08-19T19:09:17;98430.05;;;23.54;76.07
55191;BME280;41070;50.360;18.742;2022-08-19T19:11:50;98454.53;;;23.49;75.73
55191;BME280;41070;50.360;18.742;2022-08-19T19:14:40;98478.30;;;23.48;75.93
55191;BME280;41070;50.360;18.742;2022-08-19T19:17:16;98483.65;;;23.43;76.06
55191;BME280;41070;50.360;18.742;2022-08-19T19:20:02;98481.44;;;23.47;76.43
55191;BME280;41070;50.360;18.742;2022-08-19T19:22:30;98472.76;;;23.51;76.69